sensor_id;sensor_type;location;lat;lon;timestamp;P1;durP1;ratioP1;P2;durP2;ratioP2
11220;SDS011;8517;53.546;10.104;2024-01-06T00:02:05;7.60;;;5.33;;
11220;SDS011;8517;53.546;10.104;2024-01-06T00:04:32;7.67;;;5.63;;
11220;SDS011;8517;53.546;10.104;2024-01-06T00:07:00;3.67;;;2.90;;
11220;SDS011;8517;53.546;10.104;2024-01-06T00:09:27;7.30;;;5.57;;
11220;SDS011;8517;53.546;10.104;2024-01-06T00:11:53;6.83;;;5.30;;
11220;SDS011;8517;53.546;10.104;2024-01-06T00:14:20;6.07;;;4.77;;
11220;SDS011;8517;53.546;10.104;2024-01-06T00:16:47;7.50;;;5.70;;
11220;SDS011;8517;53.546;10.104;2024-01-06T00:19:14;4.90;;;4.07;;
11220;SDS011;8517;53.546;10.104;2024-01-06T00:21:42;7.50;;;5.87;;
11220;SDS011;8517;53.546;10.104;2024-01-06T00:24:10;7.93;;;5.77;;
11220;SDS011;8517;53.546;10.104;2024-01-06T00:26:37;5.93;;;4.53;;
11220;SDS011;8517;53.546;10.104;2024-01-06T00:29:04;7.37;;;5.93;;
11220;SDS011;8517;53.546;10.104;2024-01-06T00:31:31;7.50;;;5.70;;
11220;SDS011;8517;53.546;10.104;2024-01-06T00:33:57;7.20;;;5.67;;
11220;SDS011;8517;53.546;10.104;2024-01-06T00:36:24;8.10;;;5.73;;
11220;SDS011;8517;53.546;10.104;2024-01-06T00:38:51;6.20;;;5.00;;
11220;SDS011;8517;53.546;10.104;2024-01-06T00:41:19;6.83;;;5.83;;
11220;SDS011;8517;53.546;10.104;2024-01-06T00:43:46;7.17;;;5.83;;
11220;SDS011;8517;53.546;10.104;2024-01-06T00:46:12;5.83;;;4.60;;
11220;SDS011;8517;53.546;10.104;2024-01-06T00:48:39;7.93;;;6.00;;
11220;SDS011;8517;53.546;10.104;2024-01-06T00:51:06;8.20;;;5.47;;
11220;SDS011;8517;53.546;10.104;2024-01-06T00:53:33;7.80;;;5.20;;
11220;SDS011;8517;53.546;10.104;2024-01-06T00:55:59;9.03;;;5.73;;
11220;SDS011;8517;53.546;10.104;2024-01-06T00:58:27;6.70;;;5.60;;
11220;SDS011;8517;53.546;10.104;2024-01-06T01:00:54;5.60;;;4.57;;
11220;SDS011;8517;53.546;10.104;2024-01-06T01:03:21;7.47;;;5.80;;
11220;SDS011;8517;53.546;10.104;2024-01-06T01:05:48;6.30;;;5.07;;
11220;SDS011;8517;53.546;10.104;2024-01-06T01:08:14;7.00;;;5.37;;
11220;SDS011;8517;53.546;10.104;2024-01-06T01:10:41;7.10;;;6.20;;
11220;SDS011;8517;53.546;10.104;2024-01-06T01:13:08;6.67;;;5.57;;
11220;SDS011;8517;53.546;10.104;2024-01-06T01:15:36;6.20;;;4.93;;
11220;SDS011;8517;53.546;10.104;2024-01-06T01:18:03;6.33;;;4.40;;
11220;SDS011;8517;53.546;10.104;2024-01-06T01:20:30;9.00;;;6.67;;
11220;SDS011;8517;53.546;10.104;2024-01-06T01:22:57;8.67;;;6.27;;
11220;SDS011;8517;53.546;10.104;2024-01-06T01:25:24;7.77;;;5.77;;
11220;SDS011;8517;53.546;10.104;2024-01-06T01:27:50;7.97;;;6.20;;
11220;SDS011;8517;53.546;10.104;2024-01-06T01:30:17;9.10;;;6.57;;
11220;SDS011;8517;53.546;10.104;2024-01-06T01:32:45;8.77;;;6.50;;
11220;SDS011;8517;53.546;10.104;2024-01-06T01:35:12;11.93;;;6.00;;
11220;SDS011;8517;53.546;10.104;2024-01-06T01:37:39;7.80;;;6.27;;
11220;SDS011;8517;53.546;10.104;2024-01-06T01:40:06;8.27;;;6.80;;
11220;SDS011;8517;53.546;10.104;2024-01-06T01:42:33;8.73;;;6.67;;
11220;SDS011;8517;53.546;10.104;2024-01-06T01:45:00;7.57;;;6.13;;
11220;SDS011;8517;53.546;10.104;2024-01-06T01:47:27;10.03;;;7.13;;
11220;SDS011;8517;53.546;10.104;2024-01-06T01:49:55;9.60;;;6.90;;
11220;SDS011;8517;53.546;10.104;2024-01-06T01:52:23;7.63;;;6.83;;
11220;SDS011;8517;53.546;10.104;2024-01-06T01:54:50;7.93;;;5.90;;
11220;SDS011;8517;53.546;10.104;2024-01-06T01:57:19;8.43;;;6.03;;
11220;SDS011;8517;53.546;10.104;2024-01-06T01:59:49;7.87;;;6.20;;
11220;SDS011;8517;53.546;10.104;2024-01-06T02:02:17;8.23;;;6.00;;
11220;SDS011;8517;53.546;10.104;2024-01-06T02:04:44;8.97;;;6.60;;
11220;SDS011;8517;53.546;10.104;2024-01-06T02:07:13;7.70;;;6.27;;
11220;SDS011;8517;53.546;10.104;2024-01-06T02:09:39;6.93;;;5.13;;
11220;SDS011;8517;53.546;10.104;2024-01-06T02:12:06;9.13;;;6.93;;
11220;SDS011;8517;53.546;10.104;2024-01-06T02:14:33;8.97;;;5.70;;
11220;SDS011;8517;53.546;10.104;2024-01-06T02:17:00;9.63;;;6.53;;
11220;SDS011;8517;53.546;10.104;2024-01-06T02:19:29;9.13;;;5.60;;
11220;SDS011;8517;53.546;10.104;2024-01-06T02:21:57;7.93;;;6.17;;
11220;SDS011;8517;53.546;10.104;2024-01-06T02:24:24;8.40;;;6.60;;
11220;SDS011;8517;53.546;10.104;2024-01-06T02:26:51;8.83;;;6.20;;
11220;SDS011;8517;53.546;10.104;2024-01-06T02:29:17;9.93;;;6.47;;
11220;SDS011;8517;53.546;10.104;2024-01-06T02:31:44;7.33;;;5.43;;
11220;SDS011;8517;53.546;10.104;2024-01-06T02:34:11;8.30;;;6.77;;
11220;SDS011;8517;53.546;10.104;2024-01-06T02:36:38;8.33;;;6.60;;
11220;SDS011;8517;53.546;10.104;2024-01-06T02:39:06;6.20;;;4.73;;
11220;SDS011;8517;53.546;10.104;2024-01-06T02:41:32;7.10;;;6.13;;
11220;SDS011;8517;53.546;10.104;2024-01-06T02:43:59;8.40;;;6.20;;
11220;SDS011;8517;53.546;10.104;2024-01-06T02:46:27;7.40;;;5.87;;
11220;SDS011;8517;53.546;10.104;2024-01-06T02:48:54;10.47;;;5.87;;
11220;SDS011;8517;53.546;10.104;2024-01-06T02:51:21;8.30;;;6.37;;
11220;SDS011;8517;53.546;10.104;2024-01-06T02:53:48;8.63;;;5.87;;
11220;SDS011;8517;53.546;10.104;2024-01-06T02:56:16;7.43;;;6.07;;
11220;SDS011;8517;53.546;10.104;2024-01-06T02:58:43;7.43;;;5.77;;
11220;SDS011;8517;53.546;10.104;2024-01-06T03:01:11;7.53;;;5.97;;
11220;SDS011;8517;53.546;10.104;2024-01-06T03:03:38;7.70;;;5.80;;
11220;SDS011;8517;53.546;10.104;2024-01-06T03:06:04;8.37;;;6.30;;
11220;SDS011;8517;53.546;10.104;2024-01-06T03:08:32;7.27;;;5.93;;
11220;SDS011;8517;53.546;10.104;2024-01-06T03:10:59;5.43;;;4.67;;
11220;SDS011;8517;53.546;10.104;2024-01-06T03:13:28;7.53;;;6.13;;
11220;SDS011;8517;53.546;10.104;2024-01-06T03:15:55;7.63;;;5.97;;
11220;SDS011;8517;53.546;10.104;2024-01-06T03:18:22;9.03;;;6.47;;
11220;SDS011;8517;53.546;10.104;2024-01-06T03:20:48;7.73;;;6.60;;
11220;SDS011;8517;53.546;10.104;2024-01-06T03:23:15;7.37;;;6.30;;
11220;SDS011;8517;53.546;10.104;2024-01-06T03:25:42;8.87;;;6.60;;
11220;SDS011;8517;53.546;10.104;2024-01-06T03:28:09;6.10;;;5.37;;
11220;SDS011;8517;53.546;10.104;2024-01-06T03:30:37;7.80;;;6.47;;
11220;SDS011;8517;53.546;10.104;2024-01-06T03:33:04;7.83;;;6.47;;
11220;SDS011;8517;53.546;10.104;2024-01-06T03:35:31;8.03;;;6.20;;
11220;SDS011;8517;53.546;10.104;2024-01-06T03:37:58;6.70;;;5.73;;
11220;SDS011;8517;53.546;10.104;2024-01-06T03:40:25;8.30;;;6.70;;
11220;SDS011;8517;53.546;10.104;2024-01-06T03:42:51;6.90;;;5.67;;
11220;SDS011;8517;53.546;10.104;2024-01-06T03:45:19;7.30;;;6.10;;
11220;SDS011;8517;53.546;10.104;2024-01-06T03:47:47;9.03;;;7.17;;
11220;SDS011;8517;53.546;10.104;2024-01-06T03:50:14;8.03;;;6.77;;
11220;SDS011;8517;53.546;10.104;2024-01-06T03:52:40;7.17;;;6.30;;
11220;SDS011;8517;53.546;10.104;2024-01-06T03:55:07;7.77;;;6.33;;
11220;SDS011;8517;53.546;10.104;2024-01-06T03:57:34;8.37;;;6.57;;
11220;SDS011;8517;53.546;10.104;2024-01-06T04:00:01;8.43;;;6.90;;
11220;SDS011;8517;53.546;10.104;2024-01-06T04:02:29;8.90;;;7.07;;
11220;SDS011;8517;53.546;10.104;2024-01-06T04:04:57;7.93;;;6.27;;
11220;SDS011;8517;53.546;10.104;2024-01-06T04:07:23;8.80;;;7.00;;
11220;SDS011;8517;53.546;10.104;2024-01-06T04:09:50;7.13;;;5.53;;
11220;SDS011;8517;53.546;10.104;2024-01-06T04:12:17;9.40;;;6.60;;
11220;SDS011;8517;53.546;10.104;2024-01-06T04:14:44;7.90;;;6.17;;
11220;SDS011;8517;53.546;10.104;2024-01-06T04:17:10;8.10;;;6.80;;
11220;SDS011;8517;53.546;10.104;2024-01-06T04:19:37;7.57;;;6.33;;
11220;SDS011;8517;53.546;10.104;2024-01-06T04:22:05;6.87;;;5.80;;
11220;SDS011;8517;53.546;10.104;2024-01-06T04:24:32;8.80;;;6.33;;
11220;SDS011;8517;53.546;10.104;2024-01-06T04:27:02;9.53;;;7.20;;
11220;SDS011;8517;53.546;10.104;2024-01-06T04:29:29;7.77;;;5.47;;
11220;SDS011;8517;53.546;10.104;2024-01-06T04:31:56;8.47;;;6.33;;
11220;SDS011;8517;53.546;10.104;2024-01-06T04:34:23;8.47;;;6.50;;
11220;SDS011;8517;53.546;10.104;2024-01-06T04:36:49;9.70;;;7.00;;
11220;SDS011;8517;53.546;10.104;2024-01-06T04:39:17;10.23;;;7.30;;
11220;SDS011;8517;53.546;10.104;2024-01-06T04:41:44;9.17;;;7.07;;
11220;SDS011;8517;53.546;10.104;2024-01-06T04:44:11;7.80;;;6.60;;
11220;SDS011;8517;53.546;10.104;2024-01-06T04:46:38;9.00;;;6.83;;
11220;SDS011;8517;53.546;10.104;2024-01-06T04:49:04;10.20;;;6.83;;
11220;SDS011;8517;53.546;10.104;2024-01-06T04:51:31;9.93;;;7.40;;
11220;SDS011;8517;53.546;10.104;2024-01-06T04:53:58;8.47;;;6.67;;
11220;SDS011;8517;53.546;10.104;2024-01-06T04:56:26;7.83;;;6.17;;
11220;SDS011;8517;53.546;10.104;2024-01-06T04:58:53;9.47;;;6.80;;
11220;SDS011;8517;53.546;10.104;2024-01-06T05:01:20;8.80;;;6.80;;
11220;SDS011;8517;53.546;10.104;2024-01-06T05:03:47;9.80;;;7.40;;
11220;SDS011;8517;53.546;10.104;2024-01-06T05:06:13;10.03;;;6.50;;
11220;SDS011;8517;53.546;10.104;2024-01-06T05:08:40;9.83;;;7.10;;
11220;SDS011;8517;53.546;10.104;2024-01-06T05:11:09;6.90;;;5.67;;
11220;SDS011;8517;53.546;10.104;2024-01-06T05:13:38;9.50;;;7.10;;
11220;SDS011;8517;53.546;10.104;2024-01-06T05:16:05;9.70;;;7.30;;
11220;SDS011;8517;53.546;10.104;2024-01-06T05:18:33;9.27;;;7.80;;
11220;SDS011;8517;53.546;10.104;2024-01-06T05:20:59;10.50;;;7.27;;
11220;SDS011;8517;53.546;10.104;2024-01-06T05:23:26;11.03;;;7.63;;
11220;SDS011;8517;53.546;10.104;2024-01-06T05:25:53;9.33;;;7.40;;
11220;SDS011;8517;53.546;10.104;2024-01-06T05:28:20;10.07;;;7.70;;
11220;SDS011;8517;53.546;10.104;2024-01-06T05:30:48;8.17;;;7.13;;
11220;SDS011;8517;53.546;10.104;2024-01-06T05:33:15;10.93;;;8.17;;
11220;SDS011;8517;53.546;10.104;2024-01-06T05:35:42;9.13;;;7.50;;
11220;SDS011;8517;53.546;10.104;2024-01-06T05:38:09;8.63;;;7.00;;
11220;SDS011;8517;53.546;10.104;2024-01-06T05:40:36;9.57;;;7.13;;
11220;SDS011;8517;53.546;10.104;2024-01-06T05:43:03;8.63;;;6.73;;
11220;SDS011;8517;53.546;10.104;2024-01-06T05:45:30;8.80;;;6.93;;
11220;SDS011;8517;53.546;10.104;2024-01-06T05:47:58;10.77;;;7.27;;
11220;SDS011;8517;53.546;10.104;2024-01-06T05:50:25;9.73;;;6.77;;
11220;SDS011;8517;53.546;10.104;2024-01-06T05:52:51;8.93;;;7.33;;
11220;SDS011;8517;53.546;10.104;2024-01-06T05:55:18;11.20;;;8.40;;
11220;SDS011;8517;53.546;10.104;2024-01-06T05:57:45;9.37;;;6.73;;
11220;SDS011;8517;53.546;10.104;2024-01-06T06:00:12;10.67;;;7.90;;
11220;SDS011;8517;53.546;10.104;2024-01-06T06:02:40;11.33;;;6.97;;
11220;SDS011;8517;53.546;10.104;2024-01-06T06:05:08;10.00;;;7.73;;
11220;SDS011;8517;53.546;10.104;2024-01-06T06:07:35;7.87;;;6.87;;
11220;SDS011;8517;53.546;10.104;2024-01-06T06:10:04;9.20;;;6.40;;
11220;SDS011;8517;53.546;10.104;2024-01-06T06:12:33;8.53;;;6.90;;
11220;SDS011;8517;53.546;10.104;2024-01-06T06:15:00;10.83;;;8.03;;
11220;SDS011;8517;53.546;10.104;2024-01-06T06:17:28;8.63;;;6.83;;
11220;SDS011;8517;53.546;10.104;2024-01-06T06:19:55;10.10;;;7.87;;
11220;SDS011;8517;53.546;10.104;2024-01-06T06:22:23;6.60;;;4.67;;
11220;SDS011;8517;53.546;10.104;2024-01-06T06:24:51;10.60;;;7.97;;
11220;SDS011;8517;53.546;10.104;2024-01-06T06:27:18;11.03;;;7.83;;
11220;SDS011;8517;53.546;10.104;2024-01-06T06:29:45;10.57;;;7.77;;
11220;SDS011;8517;53.546;10.104;2024-01-06T06:32:12;10.23;;;8.37;;
11220;SDS011;8517;53.546;10.104;2024-01-06T06:34:39;10.93;;;8.00;;
11220;SDS011;8517;53.546;10.104;2024-01-06T06:37:05;10.97;;;7.17;;
11220;SDS011;8517;53.546;10.104;2024-01-06T06:39:34;11.60;;;8.00;;
11220;SDS011;8517;53.546;10.104;2024-01-06T06:42:01;11.43;;;8.00;;
11220;SDS011;8517;53.546;10.104;2024-01-06T06:44:28;10.70;;;7.70;;
11220;SDS011;8517;53.546;10.104;2024-01-06T06:46:55;9.87;;;8.03;;
11220;SDS011;8517;53.546;10.104;2024-01-06T06:49:22;9.67;;;7.67;;
11220;SDS011;8517;53.546;10.104;2024-01-06T06:51:48;10.03;;;6.73;;
11220;SDS011;8517;53.546;10.104;2024-01-06T06:54:15;13.57;;;9.50;;
11220;SDS011;8517;53.546;10.104;2024-01-06T06:56:44;10.17;;;7.50;;
11220;SDS011;8517;53.546;10.104;2024-01-06T06:59:10;10.90;;;8.17;;
11220;SDS011;8517;53.546;10.104;2024-01-06T07:01:37;10.50;;;8.23;;
11220;SDS011;8517;53.546;10.104;2024-01-06T07:04:04;10.37;;;7.77;;
11220;SDS011;8517;53.546;10.104;2024-01-06T07:06:31;9.47;;;7.23;;
11220;SDS011;8517;53.546;10.104;2024-01-06T07:08:58;12.17;;;8.27;;
11220;SDS011;8517;53.546;10.104;2024-01-06T07:11:25;10.33;;;7.70;;
11220;SDS011;8517;53.546;10.104;2024-01-06T07:13:53;10.13;;;8.40;;
11220;SDS011;8517;53.546;10.104;2024-01-06T07:16:20;9.97;;;6.90;;
11220;SDS011;8517;53.546;10.104;2024-01-06T07:18:47;10.17;;;7.73;;
11220;SDS011;8517;53.546;10.104;2024-01-06T07:21:14;10.07;;;7.97;;
11220;SDS011;8517;53.546;10.104;2024-01-06T07:23:40;11.67;;;8.77;;
11220;SDS011;8517;53.546;10.104;2024-01-06T07:26:08;10.97;;;8.03;;
11220;SDS011;8517;53.546;10.104;2024-01-06T07:28:35;12.90;;;8.87;;
11220;SDS011;8517;53.546;10.104;2024-01-06T07:31:03;11.90;;;8.73;;
11220;SDS011;8517;53.546;10.104;2024-01-06T07:33:30;10.63;;;8.77;;
11220;SDS011;8517;53.546;10.104;2024-01-06T07:35:57;11.70;;;8.80;;
11220;SDS011;8517;53.546;10.104;2024-01-06T07:38:24;11.87;;;8.93;;
11220;SDS011;8517;53.546;10.104;2024-01-06T07:40:51;10.63;;;8.80;;
11220;SDS011;8517;53.546;10.104;2024-01-06T07:43:19;10.17;;;7.17;;
11220;SDS011;8517;53.546;10.104;2024-01-06T07:45:46;10.93;;;8.37;;
11220;SDS011;8517;53.546;10.104;2024-01-06T07:48:14;11.40;;;9.00;;
11220;SDS011;8517;53.546;10.104;2024-01-06T07:50:41;11.17;;;8.43;;
11220;SDS011;8517;53.546;10.104;2024-01-06T07:53:08;12.40;;;9.03;;
11220;SDS011;8517;53.546;10.104;2024-01-06T07:55:35;11.87;;;9.80;;
11220;SDS011;8517;53.546;10.104;2024-01-06T07:58:02;10.87;;;8.60;;
11220;SDS011;8517;53.546;10.104;2024-01-06T08:00:29;10.27;;;7.33;;
11220;SDS011;8517;53.546;10.104;2024-01-06T08:02:56;11.70;;;7.93;;
11220;SDS011;8517;53.546;10.104;2024-01-06T08:05:24;9.67;;;7.40;;
11220;SDS011;8517;53.546;10.104;2024-01-06T08:07:51;11.70;;;8.30;;
11220;SDS011;8517;53.546;10.104;2024-01-06T08:10:18;12.40;;;9.33;;
11220;SDS011;8517;53.546;10.104;2024-01-06T08:12:45;11.07;;;8.33;;
11220;SDS011;8517;53.546;10.104;2024-01-06T08:15:13;5.97;;;4.17;;
11220;SDS011;8517;53.546;10.104;2024-01-06T08:17:40;11.87;;;8.97;;
11220;SDS011;8517;53.546;10.104;2024-01-06T08:20:08;11.50;;;8.87;;
11220;SDS011;8517;53.546;10.104;2024-01-06T08:22:37;10.87;;;8.83;;
11220;SDS011;8517;53.546;10.104;2024-01-06T08:25:04;13.30;;;9.63;;
11220;SDS011;8517;53.546;10.104;2024-01-06T08:27:32;9.87;;;8.83;;
11220;SDS011;8517;53.546;10.104;2024-01-06T08:29:59;11.70;;;8.03;;
11220;SDS011;8517;53.546;10.104;2024-01-06T08:32:26;12.43;;;9.03;;
11220;SDS011;8517;53.546;10.104;2024-01-06T08:34:53;12.43;;;8.77;;
11220;SDS011;8517;53.546;10.104;2024-01-06T08:37:19;10.47;;;7.60;;
11220;SDS011;8517;53.546;10.104;2024-01-06T08:39:47;10.37;;;7.60;;
11220;SDS011;8517;53.546;10.104;2024-01-06T08:42:14;10.23;;;7.73;;
11220;SDS011;8517;53.546;10.104;2024-01-06T08:44:41;11.97;;;7.83;;
11220;SDS011;8517;53.546;10.104;2024-01-06T08:47:09;13.30;;;9.20;;
11220;SDS011;8517;53.546;10.104;2024-01-06T08:49:35;10.50;;;7.50;;
11220;SDS011;8517;53.546;10.104;2024-01-06T08:52:02;12.13;;;7.80;;
11220;SDS011;8517;53.546;10.104;2024-01-06T08:54:30;11.27;;;8.23;;
11220;SDS011;8517;53.546;10.104;2024-01-06T08:56:58;10.97;;;6.23;;
11220;SDS011;8517;53.546;10.104;2024-01-06T08:59:25;10.90;;;7.77;;
11220;SDS011;8517;53.546;10.104;2024-01-06T09:01:52;11.47;;;7.53;;
11220;SDS011;8517;53.546;10.104;2024-01-06T09:04:18;13.37;;;9.23;;
11220;SDS011;8517;53.546;10.104;2024-01-06T09:06:45;11.40;;;8.63;;
11220;SDS011;8517;53.546;10.104;2024-01-06T09:09:12;11.63;;;8.70;;
11220;SDS011;8517;53.546;10.104;2024-01-06T09:11:39;19.27;;;13.13;;
11220;SDS011;8517;53.546;10.104;2024-01-06T09:14:08;13.13;;;9.70;;
11220;SDS011;8517;53.546;10.104;2024-01-06T09:16:35;7.87;;;6.23;;
11220;SDS011;8517;53.546;10.104;2024-01-06T09:19:02;14.20;;;9.30;;
11220;SDS011;8517;53.546;10.104;2024-01-06T09:21:29;13.73;;;10.10;;
11220;SDS011;8517;53.546;10.104;2024-01-06T09:23:56;9.67;;;6.90;;
11220;SDS011;8517;53.546;10.104;2024-01-06T09:26:23;12.07;;;9.13;;
11220;SDS011;8517;53.546;10.104;2024-01-06T09:28:50;11.83;;;9.13;;
11220;SDS011;8517;53.546;10.104;2024-01-06T09:31:18;14.47;;;9.73;;
11220;SDS011;8517;53.546;10.104;2024-01-06T09:33:44;13.63;;;9.80;;
11220;SDS011;8517;53.546;10.104;2024-01-06T09:36:11;12.63;;;8.30;;
11220;SDS011;8517;53.546;10.104;2024-01-06T09:38:38;11.97;;;8.57;;
11220;SDS011;8517;53.546;10.104;2024-01-06T09:41:05;9.70;;;7.80;;
11220;SDS011;8517;53.546;10.104;2024-01-06T09:43:32;10.23;;;8.07;;
11220;SDS011;8517;53.546;10.104;2024-01-06T09:46:02;12.20;;;9.47;;
11220;SDS011;8517;53.546;10.104;2024-01-06T09:48:34;13.43;;;9.93;;
11220;SDS011;8517;53.546;10.104;2024-01-06T09:51:05;11.67;;;9.17;;
11220;SDS011;8517;53.546;10.104;2024-01-06T09:53:37;11.30;;;8.23;;
11220;SDS011;8517;53.546;10.104;2024-01-06T09:56:09;14.57;;;9.10;;
11220;SDS011;8517;53.546;10.104;2024-01-06T09:58:37;11.90;;;9.00;;
11220;SDS011;8517;53.546;10.104;2024-01-06T10:01:17;10.23;;;8.40;;
11220;SDS011;8517;53.546;10.104;2024-01-06T10:03:46;12.13;;;9.30;;
11220;SDS011;8517;53.546;10.104;2024-01-06T10:06:13;12.43;;;8.87;;
11220;SDS011;8517;53.546;10.104;2024-01-06T10:08:41;10.23;;;7.17;;
11220;SDS011;8517;53.546;10.104;2024-01-06T10:11:08;11.57;;;9.40;;
11220;SDS011;8517;53.546;10.104;2024-01-06T10:13:39;11.70;;;8.87;;
11220;SDS011;8517;53.546;10.104;2024-01-06T10:16:06;11.33;;;9.07;;
11220;SDS011;8517;53.546;10.104;2024-01-06T10:18:38;12.10;;;9.10;;
11220;SDS011;8517;53.546;10.104;2024-01-06T10:21:27;11.70;;;8.50;;
11220;SDS011;8517;53.546;10.104;2024-01-06T10:25:22;12.37;;;8.93;;
11220;SDS011;8517;53.546;10.104;2024-01-06T10:28:04;13.03;;;8.93;;
11220;SDS011;8517;53.546;10.104;2024-01-06T10:30:42;10.10;;;7.93;;
11220;SDS011;8517;53.546;10.104;2024-01-06T10:33:09;10.03;;;6.67;;
11220;SDS011;8517;53.546;10.104;2024-01-06T10:35:38;10.20;;;8.13;;
11220;SDS011;8517;53.546;10.104;2024-01-06T10:38:07;13.53;;;8.00;;
11220;SDS011;8517;53.546;10.104;2024-01-06T10:40:34;10.47;;;7.90;;
11220;SDS011;8517;53.546;10.104;2024-01-06T10:43:01;11.60;;;9.17;;
11220;SDS011;8517;53.546;10.104;2024-01-06T10:45:29;10.63;;;8.00;;
11220;SDS011;8517;53.546;10.104;2024-01-06T10:48:06;10.70;;;7.23;;
11220;SDS011;8517;53.546;10.104;2024-01-06T10:50:58;9.50;;;7.43;;
11220;SDS011;8517;53.546;10.104;2024-01-06T10:53:28;13.50;;;7.87;;
11220;SDS011;8517;53.546;10.104;2024-01-06T10:55:56;14.90;;;9.37;;
11220;SDS011;8517;53.546;10.104;2024-01-06T10:58:24;10.23;;;7.63;;
11220;SDS011;8517;53.546;10.104;2024-01-06T11:00:51;10.57;;;7.87;;
11220;SDS011;8517;53.546;10.104;2024-01-06T11:03:18;8.47;;;7.33;;
11220;SDS011;8517;53.546;10.104;2024-01-06T11:05:46;10.47;;;6.30;;
11220;SDS011;8517;53.546;10.104;2024-01-06T11:08:14;10.50;;;8.17;;
11220;SDS011;8517;53.546;10.104;2024-01-06T11:10:44;9.57;;;6.63;;
11220;SDS011;8517;53.546;10.104;2024-01-06T11:13:12;9.07;;;7.13;;
11220;SDS011;8517;53.546;10.104;2024-01-06T11:15:46;7.20;;;5.10;;
11220;SDS011;8517;53.546;10.104;2024-01-06T11:18:31;11.60;;;8.10;;
11220;SDS011;8517;53.546;10.104;2024-01-06T11:21:14;9.87;;;7.10;;
11220;SDS011;8517;53.546;10.104;2024-01-06T11:23:44;9.57;;;7.00;;
11220;SDS011;8517;53.546;10.104;2024-01-06T11:26:12;7.87;;;5.53;;
11220;SDS011;8517;53.546;10.104;2024-01-06T11:28:43;9.30;;;7.13;;
11220;SDS011;8517;53.546;10.104;2024-01-06T11:31:11;9.33;;;7.13;;
11220;SDS011;8517;53.546;10.104;2024-01-06T11:33:41;10.23;;;6.73;;
11220;SDS011;8517;53.546;10.104;2024-01-06T11:36:08;9.20;;;6.83;;
11220;SDS011;8517;53.546;10.104;2024-01-06T11:38:37;10.70;;;7.27;;
11220;SDS011;8517;53.546;10.104;2024-01-06T11:44:14;8.37;;;6.20;;
11220;SDS011;8517;53.546;10.104;2024-01-06T11:46:44;8.17;;;6.17;;
11220;SDS011;8517;53.546;10.104;2024-01-06T11:49:51;9.67;;;6.17;;
11220;SDS011;8517;53.546;10.104;2024-01-06T11:51:59;6.63;;;4.87;;
11220;SDS011;8517;53.546;10.104;2024-01-06T11:54:26;11.20;;;6.50;;
11220;SDS011;8517;53.546;10.104;2024-01-06T11:56:55;8.40;;;5.50;;
11220;SDS011;8517;53.546;10.104;2024-01-06T11:59:22;8.83;;;5.80;;
11220;SDS011;8517;53.546;10.104;2024-01-06T12:01:49;10.73;;;6.27;;
11220;SDS011;8517;53.546;10.104;2024-01-06T12:04:21;7.47;;;5.77;;
11220;SDS011;8517;53.546;10.104;2024-01-06T12:07:12;9.00;;;6.43;;
11220;SDS011;8517;53.546;10.104;2024-01-06T12:13:16;8.73;;;6.43;;
11220;SDS011;8517;53.546;10.104;2024-01-06T12:19:47;7.80;;;6.13;;
11220;SDS011;8517;53.546;10.104;2024-01-06T12:22:33;7.77;;;5.67;;
11220;SDS011;8517;53.546;10.104;2024-01-06T12:25:02;6.83;;;5.10;;
11220;SDS011;8517;53.546;10.104;2024-01-06T12:27:32;7.40;;;5.73;;
11220;SDS011;8517;53.546;10.104;2024-01-06T12:30:01;8.10;;;5.47;;
11220;SDS011;8517;53.546;10.104;2024-01-06T12:32:28;8.73;;;6.03;;
11220;SDS011;8517;53.546;10.104;2024-01-06T12:34:59;9.37;;;6.50;;
11220;SDS011;8517;53.546;10.104;2024-01-06T12:37:34;8.93;;;6.20;;
11220;SDS011;8517;53.546;10.104;2024-01-06T12:40:04;8.17;;;5.57;;
11220;SDS011;8517;53.546;10.104;2024-01-06T12:42:40;6.43;;;5.20;;
11220;SDS011;8517;53.546;10.104;2024-01-06T12:45:10;8.13;;;6.17;;
11220;SDS011;8517;53.546;10.104;2024-01-06T12:47:42;7.90;;;5.53;;
11220;SDS011;8517;53.546;10.104;2024-01-06T12:50:52;5.90;;;4.93;;
11220;SDS011;8517;53.546;10.104;2024-01-06T12:53:19;8.37;;;5.40;;
11220;SDS011;8517;53.546;10.104;2024-01-06T12:55:46;7.77;;;5.30;;
11220;SDS011;8517;53.546;10.104;2024-01-06T12:59:02;7.50;;;4.77;;
11220;SDS011;8517;53.546;10.104;2024-01-06T13:01:40;6.03;;;5.33;;
11220;SDS011;8517;53.546;10.104;2024-01-06T13:04:19;8.40;;;5.73;;
11220;SDS011;8517;53.546;10.104;2024-01-06T13:07:35;6.90;;;5.93;;
11220;SDS011;8517;53.546;10.104;2024-01-06T13:10:08;5.60;;;4.83;;
11220;SDS011;8517;53.546;10.104;2024-01-06T13:12:38;7.07;;;5.47;;
11220;SDS011;8517;53.546;10.104;2024-01-06T13:15:05;6.43;;;5.17;;
11220;SDS011;8517;53.546;10.104;2024-01-06T13:17:37;6.27;;;4.93;;
11220;SDS011;8517;53.546;10.104;2024-01-06T13:20:04;8.83;;;6.37;;
11220;SDS011;8517;53.546;10.104;2024-01-06T13:22:37;7.07;;;4.97;;
11220;SDS011;8517;53.546;10.104;2024-01-06T13:25:28;7.73;;;5.00;;
11220;SDS011;8517;53.546;10.104;2024-01-06T13:28:31;5.90;;;4.70;;
11220;SDS011;8517;53.546;10.104;2024-01-06T13:30:58;6.20;;;4.93;;
11220;SDS011;8517;53.546;10.104;2024-01-06T13:33:26;7.93;;;4.67;;
11220;SDS011;8517;53.546;10.104;2024-01-06T13:35:54;5.33;;;4.57;;
11220;SDS011;8517;53.546;10.104;2024-01-06T13:38:21;5.13;;;3.77;;
11220;SDS011;8517;53.546;10.104;2024-01-06T13:40:48;5.73;;;4.97;;
11220;SDS011;8517;53.546;10.104;2024-01-06T13:46:21;7.87;;;5.63;;
11220;SDS011;8517;53.546;10.104;2024-01-06T13:49:01;4.90;;;4.23;;
11220;SDS011;8517;53.546;10.104;2024-01-06T13:51:44;4.63;;;3.60;;
11220;SDS011;8517;53.546;10.104;2024-01-06T13:54:11;5.43;;;4.23;;
11220;SDS011;8517;53.546;10.104;2024-01-06T13:56:38;6.63;;;4.43;;
11220;SDS011;8517;53.546;10.104;2024-01-06T13:59:11;5.27;;;4.50;;
11220;SDS011;8517;53.546;10.104;2024-01-06T14:02:07;5.97;;;4.33;;
11220;SDS011;8517;53.546;10.104;2024-01-06T14:04:37;6.03;;;4.53;;
11220;SDS011;8517;53.546;10.104;2024-01-06T14:07:04;7.00;;;4.63;;
11220;SDS011;8517;53.546;10.104;2024-01-06T14:09:31;6.20;;;4.97;;
11220;SDS011;8517;53.546;10.104;2024-01-06T14:11:58;5.47;;;4.90;;
11220;SDS011;8517;53.546;10.104;2024-01-06T14:14:27;5.60;;;4.43;;
11220;SDS011;8517;53.546;10.104;2024-01-06T14:17:03;6.13;;;5.10;;
11220;SDS011;8517;53.546;10.104;2024-01-06T14:19:51;6.97;;;4.97;;
11220;SDS011;8517;53.546;10.104;2024-01-06T14:22:21;5.33;;;3.90;;
11220;SDS011;8517;53.546;10.104;2024-01-06T14:24:47;5.60;;;4.70;;
11220;SDS011;8517;53.546;10.104;2024-01-06T14:27:15;5.17;;;3.90;;
11220;SDS011;8517;53.546;10.104;2024-01-06T14:29:42;5.37;;;4.50;;
11220;SDS011;8517;53.546;10.104;2024-01-06T14:32:09;5.57;;;4.20;;
11220;SDS011;8517;53.546;10.104;2024-01-06T14:34:36;6.07;;;5.23;;
11220;SDS011;8517;53.546;10.104;2024-01-06T14:37:05;5.97;;;4.90;;
11220;SDS011;8517;53.546;10.104;2024-01-06T14:39:33;5.33;;;4.20;;
11220;SDS011;8517;53.546;10.104;2024-01-06T14:42:28;5.70;;;5.10;;
11220;SDS011;8517;53.546;10.104;2024-01-06T14:44:59;5.30;;;4.50;;
11220;SDS011;8517;53.546;10.104;2024-01-06T14:47:25;3.40;;;2.97;;
11220;SDS011;8517;53.546;10.104;2024-01-06T14:49:52;6.37;;;4.00;;
11220;SDS011;8517;53.546;10.104;2024-01-06T14:52:22;3.97;;;3.20;;
11220;SDS011;8517;53.546;10.104;2024-01-06T14:54:48;5.43;;;3.50;;
11220;SDS011;8517;53.546;10.104;2024-01-06T14:57:15;8.33;;;5.20;;
11220;SDS011;8517;53.546;10.104;2024-01-06T14:59:56;6.17;;;4.90;;
11220;SDS011;8517;53.546;10.104;2024-01-06T15:02:23;6.13;;;5.43;;
11220;SDS011;8517;53.546;10.104;2024-01-06T15:04:50;9.43;;;6.03;;
11220;SDS011;8517;53.546;10.104;2024-01-06T15:07:18;6.67;;;5.00;;
11220;SDS011;8517;53.546;10.104;2024-01-06T15:09:46;7.70;;;5.73;;